createdAt,value
2016-11-30T00:00:35.166Z,75.85
2016-11-30T00:01:35.202Z,75.95
2016-11-30T00:02:35.502Z,75.85
2016-11-30T00:03:35.204Z,75.85
2016-11-30T00:04:35.208Z,75.95
2016-11-30T00:05:35.222Z,75.95
2016-11-30T00:06:35.231Z,75.66
2016-11-30T00:07:35.241Z,75.85
2016-11-30T00:08:35.258Z,75.95
2016-11-30T00:09:35.270Z,76.14
2016-11-30T00:10:35.277Z,75.95
2016-11-30T00:11:35.287Z,76.14
2016-11-30T00:12:35.296Z,76.04
2016-11-30T00:13:35.319Z,76.04
2016-11-30T00:14:35.318Z,75.95
2016-11-30T00:15:35.336Z,76.04
2016-11-30T00:16:35.338Z,76.04
2016-11-30T00:17:35.396Z,75.95
2016-11-30T00:18:35.357Z,76.04
2016-11-30T00:19:35.376Z,76.04
2016-11-30T00:20:35.379Z,76.04
2016-11-30T00:21:35.386Z,76.14
2016-11-30T00:22:35.411Z,75.76
2016-11-30T00:23:35.413Z,76.04
2016-11-30T00:24:35.422Z,75.66
2016-11-30T00:25:35.427Z,75.85
2016-11-30T00:26:35.438Z,76.04
2016-11-30T00:27:35.461Z,75.95
2016-11-30T00:28:35.461Z,75.95
2016-11-30T00:29:35.471Z,76.04
2016-11-30T00:30:35.479Z,75.76
2016-11-30T00:31:35.490Z,75.95
2016-11-30T00:32:35.499Z,76.04
2016-11-30T00:33:35.511Z,76.04
2016-11-30T00:34:35.530Z,75.66
2016-11-30T00:35:35.531Z,75.95
2016-11-30T00:36:35.540Z,76.04
2016-11-30T00:37:35.550Z,75.76
2016-11-30T00:38:35.564Z,75.95
2016-11-30T00:39:35.571Z,75.95
2016-11-30T00:40:35.586Z,75.95
2016-11-30T00:41:35.604Z,76.04
2016-11-30T00:42:35.609Z,75.85
2016-11-30T00:43:35.612Z,75.57
2016-11-30T00:44:35.625Z,75.66
2016-11-30T00:45:35.633Z,75.66
2016-11-30T00:46:35.643Z,75.57
2016-11-30T00:47:35.667Z,75.95
2016-11-30T00:48:35.663Z,75.76
2016-11-30T00:49:35.674Z,75.76
2016-11-30T00:50:35.687Z,75.76
2016-11-30T00:51:35.698Z,75.76
2016-11-30T00:52:35.703Z,75.95
2016-11-30T00:53:35.724Z,75.85
2016-11-30T00:54:35.731Z,76.04
2016-11-30T00:55:35.735Z,75.76
2016-11-30T00:56:35.743Z,75.57
2016-11-30T00:57:35.753Z,75.85
2016-11-30T00:58:35.765Z,76.04
2016-11-30T00:59:35.865Z,75.85
2016-11-30T01:00:35.785Z,75.66
2016-11-30T01:01:36.016Z,75.66
2016-11-30T01:02:35.804Z,75.57
2016-11-30T01:03:35.818Z,75.95
2016-11-30T01:04:35.826Z,75.95
2016-11-30T01:05:35.832Z,75.85
2016-11-30T01:06:35.958Z,75.85
2016-11-30T01:07:36.148Z,75.57
2016-11-30T01:08:35.882Z,75.66
2016-11-30T01:09:35.879Z,75.57
2016-11-30T01:10:35.894Z,75.57
2016-11-30T01:11:35.903Z,75.76
2016-11-30T01:12:35.913Z,75.85
2016-11-30T01:13:35.924Z,76.14
2016-11-30T01:14:35.930Z,76.51
2016-11-30T01:15:35.942Z,76.23
2016-11-30T01:16:35.946Z,76.42
2016-11-30T01:17:35.956Z,76.14
2016-11-30T01:18:35.973Z,76.42
2016-11-30T01:19:35.985Z,76.23
2016-11-30T01:20:35.992Z,76.04
2016-11-30T01:21:36.001Z,76.04
2016-11-30T01:22:36.140Z,76.04
2016-11-30T01:23:36.016Z,76.04
2016-11-30T01:24:36.035Z,76.14
2016-11-30T01:25:36.048Z,76.42
2016-11-30T01:26:36.047Z,76.04
2016-11-30T01:27:36.056Z,76.32
2016-11-30T01:28:36.068Z,76.04
2016-11-30T01:29:36.310Z,76.51
2016-11-30T01:30:36.085Z,76.51
2016-11-30T01:31:36.099Z,76.32
2016-11-30T01:32:36.113Z,76.14
2016-11-30T01:33:36.118Z,76.14
2016-11-30T01:34:36.241Z,76.14
2016-11-30T01:35:36.250Z,76.32
2016-11-30T01:36:36.149Z,76.51
2016-11-30T01:37:36.458Z,76.32
2016-11-30T01:38:36.166Z,76.14
2016-11-30T01:39:36.180Z,76.32
2016-11-30T01:40:36.187Z,76.14
2016-11-30T01:41:36.197Z,76.42
2016-11-30T01:42:36.214Z,76.42
2016-11-30T01:43:36.217Z,76.04
2016-11-30T01:44:36.228Z,75.66
2016-11-30T01:45:36.249Z,75.57
2016-11-30T01:46:36.247Z,75.85
2016-11-30T01:47:36.256Z,76.04
2016-11-30T01:48:36.268Z,75.66
2016-11-30T01:49:36.279Z,75.95
2016-11-30T01:50:36.289Z,75.76
2016-11-30T01:51:36.300Z,75.66
2016-11-30T01:52:36.306Z,75.66
2016-11-30T01:53:36.413Z,75.76
2016-11-30T01:54:36.492Z,75.95
2016-11-30T01:55:36.524Z,76.04
2016-11-30T01:56:36.466Z,75.38
2016-11-30T01:57:36.412Z,75.57
2016-11-30T01:58:36.366Z,75.66
2016-11-30T01:59:36.386Z,75.95
2016-11-30T02:00:36.392Z,75.85
2016-11-30T02:01:36.398Z,75.95
2016-11-30T02:02:36.407Z,75.95
2016-11-30T02:03:36.427Z,75.57
2016-11-30T02:04:36.428Z,75.76
2016-11-30T02:05:36.445Z,76.04
2016-11-30T02:06:36.448Z,75.76
2016-11-30T02:07:36.844Z,76.14
2016-11-30T02:08:36.468Z,76.04
2016-11-30T02:09:36.476Z,75.66
2016-11-30T02:10:36.493Z,75.85
2016-11-30T02:11:36.498Z,75.85
2016-11-30T02:12:36.508Z,75.57
2016-11-30T02:13:36.518Z,75.47
2016-11-30T02:14:36.531Z,75.66
2016-11-30T02:15:36.537Z,75.57
2016-11-30T02:16:36.548Z,76.04
2016-11-30T02:17:36.560Z,76.32
2016-11-30T02:18:36.568Z,76.42
2016-11-30T02:19:36.577Z,76.32
2016-11-30T02:20:36.592Z,76.04
2016-11-30T02:21:36.599Z,76.14
2016-11-30T02:22:36.618Z,76.14
2016-11-30T02:23:36.619Z,76.23
2016-11-30T02:24:36.637Z,76.04
2016-11-30T02:25:36.643Z,76.14
2016-11-30T02:26:36.652Z,76.51
2016-11-30T02:27:36.671Z,76.51
2016-11-30T02:28:36.671Z,76.32
2016-11-30T02:29:36.678Z,76.32
2016-11-30T02:30:36.718Z,76.14
2016-11-30T02:31:36.705Z,76.42
2016-11-30T02:32:36.710Z,76.51
2016-11-30T02:33:36.721Z,76.04
2016-11-30T02:34:36.728Z,76.14
2016-11-30T02:35:36.752Z,75.95
2016-11-30T02:36:36.747Z,76.32
2016-11-30T02:37:36.760Z,76.32
2016-11-30T02:38:36.772Z,76.04
2016-11-30T02:39:36.784Z,76.23
2016-11-30T02:40:36.790Z,76.23
2016-11-30T02:41:36.798Z,76.04
2016-11-30T02:42:36.813Z,75.66
2016-11-30T02:43:36.819Z,75.85
2016-11-30T02:44:36.829Z,75.95
2016-11-30T02:45:36.901Z,75.76
2016-11-30T02:46:36.878Z,75.85
2016-11-30T02:47:36.859Z,75.85
2016-11-30T02:48:36.872Z,76.04
2016-11-30T02:49:36.880Z,75.76
2016-11-30T02:50:36.888Z,75.66
2016-11-30T02:51:36.898Z,76.04
2016-11-30T02:52:36.912Z,76.04
2016-11-30T02:53:37.009Z,75.95
2016-11-30T02:54:36.927Z,75.95
2016-11-30T02:55:36.938Z,76.04
2016-11-30T02:56:37.015Z,76.14
2016-11-30T02:57:36.963Z,76.04
2016-11-30T02:58:36.967Z,75.66
2016-11-30T02:59:36.977Z,75.76
2016-11-30T03:00:36.988Z,75.95
2016-11-30T03:01:36.996Z,75.95
2016-11-30T03:02:37.009Z,75.85
2016-11-30T03:03:37.022Z,75.95
2016-11-30T03:04:37.145Z,75.85
2016-11-30T03:05:37.155Z,75.76
2016-11-30T03:06:37.051Z,75.85
2016-11-30T03:07:37.063Z,75.85
2016-11-30T03:08:37.067Z,75.76
2016-11-30T03:09:37.082Z,75.76
2016-11-30T03:10:37.098Z,75.85
2016-11-30T03:11:37.417Z,75.76
2016-11-30T03:12:37.138Z,75.85
2016-11-30T03:13:37.207Z,75.95
2016-11-30T03:14:37.128Z,76.04
2016-11-30T03:15:37.135Z,75.57
2016-11-30T03:16:37.148Z,75.66
2016-11-30T03:17:37.160Z,75.66
2016-11-30T03:18:37.166Z,75.47
2016-11-30T03:19:37.177Z,75.47
2016-11-30T03:20:37.186Z,76.04
2016-11-30T03:21:37.199Z,76.04
2016-11-30T03:22:37.205Z,75.95
2016-11-30T03:23:37.216Z,75.66
2016-11-30T03:24:37.227Z,75.95
2016-11-30T03:25:37.239Z,75.66
2016-11-30T03:26:37.252Z,75.95
2016-11-30T03:27:37.261Z,76.04
2016-11-30T03:28:37.264Z,75.85
2016-11-30T03:29:37.280Z,75.85
2016-11-30T03:30:37.290Z,75.38
2016-11-30T03:31:37.293Z,75.76
2016-11-30T03:32:37.307Z,76.23
2016-11-30T03:33:37.328Z,76.32
2016-11-30T03:34:37.322Z,76.23
2016-11-30T03:35:37.343Z,76.04
2016-11-30T03:36:37.345Z,76.04
2016-11-30T03:37:37.352Z,76.14
2016-11-30T03:38:37.362Z,76.04
2016-11-30T03:39:37.374Z,76.04
2016-11-30T03:40:37.388Z,76.32
2016-11-30T03:41:37.395Z,76.42
2016-11-30T03:42:37.403Z,76.04
2016-11-30T03:43:37.418Z,76.23
2016-11-30T03:44:37.423Z,76.32
2016-11-30T03:45:37.438Z,75.95
2016-11-30T03:46:37.440Z,76.04
2016-11-30T03:47:37.453Z,76.14
2016-11-30T03:48:37.462Z,75.95
2016-11-30T03:49:37.474Z,75.57
2016-11-30T03:50:37.480Z,75.85
2016-11-30T03:51:37.493Z,75.95
2016-11-30T03:52:37.502Z,75.76
2016-11-30T03:53:37.514Z,75.76
2016-11-30T03:54:37.520Z,75.76
2016-11-30T03:55:37.849Z,75.76
2016-11-30T03:56:37.539Z,75.76
2016-11-30T03:57:37.548Z,75.95
2016-11-30T03:58:37.561Z,75.76
2016-11-30T03:59:37.575Z,75.95
2016-11-30T04:00:37.586Z,75.76
2016-11-30T04:01:37.595Z,75.57
2016-11-30T04:02:37.604Z,75.57
2016-11-30T04:03:37.609Z,75.85
2016-11-30T04:04:37.639Z,75.76
2016-11-30T04:05:37.627Z,75.85
2016-11-30T04:06:37.676Z,75.85
2016-11-30T04:07:37.647Z,75.85
2016-11-30T04:08:37.660Z,75.66
2016-11-30T04:09:37.669Z,76.04
2016-11-30T04:10:37.680Z,75.76
2016-11-30T04:11:37.687Z,75.85
2016-11-30T04:12:37.698Z,75.85
2016-11-30T04:13:37.706Z,75.95
2016-11-30T04:14:37.721Z,75.76
2016-11-30T04:15:37.729Z,75.57
2016-11-30T04:16:37.741Z,75.95
2016-11-30T04:17:37.747Z,75.85
2016-11-30T04:18:37.757Z,75.66
2016-11-30T04:19:37.771Z,75.95
2016-11-30T04:20:37.804Z,75.95
2016-11-30T04:21:37.786Z,75.66
2016-11-30T04:22:37.796Z,75.85
2016-11-30T04:23:37.813Z,75.76
2016-11-30T04:24:37.819Z,75.57
2016-11-30T04:25:37.823Z,75.47
2016-11-30T04:26:37.833Z,75.47
2016-11-30T04:27:37.844Z,75.66
2016-11-30T04:28:37.859Z,75.66
2016-11-30T04:29:37.864Z,75.66
2016-11-30T04:30:37.877Z,75.47
2016-11-30T04:31:37.882Z,75.76
2016-11-30T04:32:37.894Z,75.85
2016-11-30T04:33:37.903Z,75.57
2016-11-30T04:34:37.910Z,75.66
2016-11-30T04:35:37.924Z,75.76
2016-11-30T04:36:38.020Z,75.66
2016-11-30T04:37:38.027Z,75.95
2016-11-30T04:38:38.068Z,75.95
2016-11-30T04:39:38.055Z,75.85
2016-11-30T04:40:38.066Z,75.57
2016-11-30T04:41:38.076Z,75.76
2016-11-30T04:42:38.109Z,75.57
2016-11-30T04:43:38.003Z,75.57
2016-11-30T04:44:38.010Z,76.14
2016-11-30T04:45:38.122Z,76.23
2016-11-30T04:46:38.031Z,75.66
2016-11-30T04:47:38.130Z,75.95
2016-11-30T04:48:38.048Z,75.38
2016-11-30T04:49:38.057Z,75.76
2016-11-30T04:50:38.069Z,75.66
2016-11-30T04:51:38.085Z,75.76
2016-11-30T04:52:38.086Z,75.95
2016-11-30T04:53:38.099Z,75.76
2016-11-30T04:54:38.110Z,75.66
2016-11-30T04:55:38.118Z,75.57
2016-11-30T04:56:38.131Z,75.57
2016-11-30T04:57:38.136Z,75.76
2016-11-30T04:58:38.148Z,75.57
2016-11-30T04:59:38.155Z,75.95
2016-11-30T05:00:38.169Z,75.95
2016-11-30T05:01:38.178Z,75.76
2016-11-30T05:02:38.186Z,75.57
2016-11-30T05:03:38.198Z,75.85
2016-11-30T05:04:38.206Z,75.57
2016-11-30T05:05:38.218Z,75.66
2016-11-30T05:06:38.227Z,76.14
2016-11-30T05:07:38.235Z,76.14
2016-11-30T05:08:38.244Z,76.23
2016-11-30T05:09:38.257Z,76.23
2016-11-30T05:10:38.267Z,75.66
2016-11-30T05:11:38.275Z,75.66
2016-11-30T05:12:38.286Z,75.76
2016-11-30T05:13:38.293Z,75.85
2016-11-30T05:14:38.305Z,75.95
2016-11-30T05:15:38.318Z,75.66
2016-11-30T05:16:38.320Z,75.66
2016-11-30T05:17:38.335Z,75.47
2016-11-30T05:18:38.341Z,75.76
2016-11-30T05:19:38.361Z,75.66
2016-11-30T05:20:38.361Z,75.76
2016-11-30T05:21:38.376Z,75.95
2016-11-30T05:22:38.381Z,75.66
2016-11-30T05:23:38.387Z,76.04
2016-11-30T05:24:38.398Z,75.57
2016-11-30T05:25:38.408Z,76.04
2016-11-30T05:26:38.422Z,76.04
2016-11-30T05:27:38.427Z,75.57
2016-11-30T05:28:38.436Z,75.76
2016-11-30T05:29:38.451Z,75.38
2016-11-30T05:30:38.459Z,75.57
2016-11-30T05:31:38.465Z,75.38
2016-11-30T05:32:38.493Z,75.57
2016-11-30T05:33:38.494Z,75.38
2016-11-30T05:34:38.525Z,75.66
2016-11-30T05:35:38.505Z,75.47
2016-11-30T05:36:38.515Z,75.47
2016-11-30T05:37:38.530Z,75.57
2016-11-30T05:38:38.545Z,75.28
2016-11-30T05:39:38.546Z,75.66
2016-11-30T05:40:38.556Z,75.85
2016-11-30T05:41:38.573Z,75.66
2016-11-30T05:42:38.595Z,75.95
2016-11-30T05:43:38.583Z,75.57
2016-11-30T05:44:38.594Z,75.76
2016-11-30T05:45:38.605Z,75.28
2016-11-30T05:46:38.621Z,75.38
2016-11-30T05:47:38.625Z,75.28
2016-11-30T05:48:38.636Z,75.57
2016-11-30T05:49:38.642Z,75.47
2016-11-30T05:50:38.655Z,76.04
2016-11-30T05:51:38.662Z,75.66
2016-11-30T05:52:38.672Z,75.57
2016-11-30T05:53:38.678Z,75.38
2016-11-30T05:54:38.690Z,75.28
2016-11-30T05:55:38.700Z,75.38
2016-11-30T05:56:38.711Z,75.38
2016-11-30T05:57:38.722Z,75.09
2016-11-30T05:58:38.782Z,75.47
2016-11-30T05:59:38.739Z,75.28
2016-11-30T06:00:38.747Z,74.71
2016-11-30T06:01:38.758Z,74.81
2016-11-30T06:02:38.774Z,75.09
2016-11-30T06:03:38.790Z,75.38
2016-11-30T06:04:38.786Z,75.47
2016-11-30T06:05:38.798Z,75
2016-11-30T06:06:38.814Z,74.81
2016-11-30T06:07:38.817Z,74.81
2016-11-30T06:08:38.828Z,74.81
2016-11-30T06:09:38.836Z,74.81
2016-11-30T06:10:38.846Z,75.47
2016-11-30T06:11:38.859Z,75.38
2016-11-30T06:12:38.863Z,75.38
2016-11-30T06:13:38.928Z,75.57
2016-11-30T06:14:38.886Z,75.47
2016-11-30T06:15:38.899Z,75.38
2016-11-30T06:16:38.909Z,76.04
2016-11-30T06:17:38.911Z,75.85
2016-11-30T06:18:38.975Z,75.76
2016-11-30T06:19:38.933Z,75.66
2016-11-30T06:20:38.944Z,75.76
2016-11-30T06:21:38.955Z,75.57
2016-11-30T06:22:38.962Z,75.57
2016-11-30T06:23:38.980Z,75.66
2016-11-30T06:24:38.989Z,75.57
2016-11-30T06:25:38.991Z,75.28
2016-11-30T06:26:39.004Z,75.47
2016-11-30T06:27:39.009Z,75.19
2016-11-30T06:28:39.079Z,75.38
2016-11-30T06:29:39.029Z,75.38
2016-11-30T06:30:39.048Z,75.57
2016-11-30T06:31:39.052Z,75.57
2016-11-30T06:32:39.059Z,76.04
2016-11-30T06:33:39.066Z,75.57
2016-11-30T06:34:39.080Z,75.57
2016-11-30T06:35:39.092Z,75.57
2016-11-30T06:36:39.098Z,76.04
2016-11-30T06:37:39.190Z,75.66
2016-11-30T06:38:39.319Z,75.95
2016-11-30T06:39:39.206Z,75.76
2016-11-30T06:40:39.207Z,75.76
2016-11-30T06:41:39.217Z,76.04
2016-11-30T06:42:39.266Z,75.76
2016-11-30T06:43:39.261Z,75.66
2016-11-30T06:44:39.278Z,75.95
2016-11-30T06:45:39.279Z,75.76
2016-11-30T06:46:39.211Z,75.76
2016-11-30T06:47:39.220Z,75.76
2016-11-30T06:48:39.278Z,75.85
2016-11-30T06:49:39.225Z,75.85
2016-11-30T06:50:39.234Z,75.76
2016-11-30T06:51:39.254Z,76.04
2016-11-30T06:52:39.261Z,75.47
2016-11-30T06:53:39.265Z,75.38
2016-11-30T06:54:39.273Z,75.28
2016-11-30T06:55:39.282Z,75.09
2016-11-30T06:56:39.293Z,75.28
2016-11-30T06:57:39.306Z,75.57
2016-11-30T06:58:39.372Z,74.81
2016-11-30T06:59:39.320Z,75.09
2016-11-30T07:00:39.333Z,75.28
2016-11-30T07:01:39.339Z,74.9
2016-11-30T07:02:39.350Z,75
2016-11-30T07:03:39.359Z,74.9
2016-11-30T07:04:39.369Z,75.09
2016-11-30T07:05:39.381Z,75.09
2016-11-30T07:06:39.387Z,74.9
2016-11-30T07:07:39.457Z,75
2016-11-30T07:08:39.461Z,75.28
2016-11-30T07:09:39.418Z,75.09
2016-11-30T07:10:39.431Z,75
2016-11-30T07:11:39.436Z,74.71
2016-11-30T07:12:39.447Z,75
2016-11-30T07:13:39.509Z,74.9
2016-11-30T07:14:39.469Z,75.09
2016-11-30T07:15:39.481Z,75
2016-11-30T07:16:39.492Z,75.28
2016-11-30T07:17:39.495Z,74.9
2016-11-30T07:18:39.510Z,75.09
2016-11-30T07:19:39.516Z,74.9
2016-11-30T07:20:39.841Z,74.9
2016-11-30T07:21:39.569Z,75.28
2016-11-30T07:22:39.547Z,75.19
2016-11-30T07:23:39.559Z,75.09
2016-11-30T07:24:39.566Z,75.28
2016-11-30T07:25:39.576Z,75
2016-11-30T07:26:39.587Z,74.81
2016-11-30T07:27:39.593Z,75
2016-11-30T07:28:39.655Z,74.81
2016-11-30T07:29:39.614Z,74.71
2016-11-30T07:30:39.625Z,74.43
2016-11-30T07:31:39.640Z,74.62
2016-11-30T07:32:39.643Z,74.62
2016-11-30T07:33:39.666Z,74.43
2016-11-30T07:34:39.664Z,74.33
2016-11-30T07:35:39.677Z,74.15
2016-11-30T07:36:39.683Z,74.33
2016-11-30T07:37:39.693Z,74.62
2016-11-30T07:38:39.753Z,74.43
2016-11-30T07:39:39.714Z,73.86
2016-11-30T07:40:39.721Z,73.86
2016-11-30T07:41:39.732Z,74.15
2016-11-30T07:42:40.067Z,73.77
2016-11-30T07:43:39.772Z,74.43
2016-11-30T07:44:39.768Z,74.43
2016-11-30T07:45:39.772Z,74.33
2016-11-30T07:46:39.782Z,74.15
2016-11-30T07:47:39.790Z,74.15
2016-11-30T07:48:39.805Z,73.96
2016-11-30T07:49:39.814Z,74.15
2016-11-30T07:50:39.821Z,74.24
2016-11-30T07:51:39.835Z,74.43
2016-11-30T07:52:39.840Z,73.68
2016-11-30T07:53:39.850Z,74.05
2016-11-30T07:54:39.860Z,74.15
2016-11-30T07:55:39.882Z,74.05
2016-11-30T07:56:39.883Z,73.77
2016-11-30T07:57:39.889Z,74.33
2016-11-30T07:58:39.949Z,74.43
2016-11-30T07:59:39.910Z,74.43
2016-11-30T08:00:39.927Z,74.52
2016-11-30T08:01:39.931Z,74.24
2016-11-30T08:02:39.940Z,74.43
2016-11-30T08:03:39.951Z,74.52
2016-11-30T08:04:39.968Z,74.33
2016-11-30T08:05:39.968Z,74.33
2016-11-30T08:06:39.980Z,74.33
2016-11-30T08:07:39.990Z,74.43
2016-11-30T08:08:40.003Z,74.24
2016-11-30T08:09:40.009Z,74.43
2016-11-30T08:10:40.021Z,74.33
2016-11-30T08:11:40.032Z,73.86
2016-11-30T08:12:40.038Z,73.96
2016-11-30T08:13:40.052Z,73.96
2016-11-30T08:14:40.061Z,74.33
2016-11-30T08:15:40.071Z,74.47
2016-11-30T08:16:40.194Z,73.99
2016-11-30T08:17:40.091Z,74.18
2016-11-30T08:18:40.100Z,73.99
2016-11-30T08:19:40.110Z,74.37
2016-11-30T08:20:40.132Z,74.15
2016-11-30T08:21:40.132Z,74.37
2016-11-30T08:22:40.141Z,73.9
2016-11-30T08:23:40.158Z,73.99
2016-11-30T08:24:40.158Z,73.9
2016-11-30T08:25:40.177Z,73.9
2016-11-30T08:26:40.182Z,73.71
2016-11-30T08:27:40.189Z,73.14
2016-11-30T08:28:40.199Z,73.14
2016-11-30T08:29:40.226Z,73.52
2016-11-30T08:30:40.221Z,73.61
2016-11-30T08:31:40.235Z,73.61
2016-11-30T08:32:40.242Z,73.61
2016-11-30T08:33:40.257Z,73.52
2016-11-30T08:34:40.263Z,73.52
2016-11-30T08:35:40.272Z,73.61
2016-11-30T08:36:40.281Z,73.52
2016-11-30T08:37:40.293Z,73.52
2016-11-30T08:38:40.308Z,73.52
2016-11-30T08:39:40.309Z,73.14
2016-11-30T08:40:40.324Z,72.77
2016-11-30T08:41:40.336Z,73.05
2016-11-30T08:42:40.342Z,73.05
2016-11-30T08:43:40.354Z,72.67
2016-11-30T08:44:40.372Z,72.77
2016-11-30T08:45:40.377Z,72.86
2016-11-30T08:46:40.386Z,73.24
2016-11-30T08:47:40.394Z,73.33
2016-11-30T08:48:40.406Z,72.57
2016-11-30T08:49:40.413Z,72.96
2016-11-30T08:50:40.427Z,72.86
2016-11-30T08:51:40.435Z,72.38
2016-11-30T08:52:40.446Z,72.48
2016-11-30T08:53:40.455Z,72.77
2016-11-30T08:54:40.586Z,72.48
2016-11-30T08:55:40.475Z,72.48
2016-11-30T08:56:40.497Z,72.57
2016-11-30T08:57:40.614Z,72.29
2016-11-30T08:58:40.620Z,72.38
2016-11-30T08:59:40.593Z,72.48
2016-11-30T09:00:40.902Z,72.1
2016-11-30T09:01:40.611Z,72.29
2016-11-30T09:02:40.618Z,72.67
2016-11-30T09:03:40.764Z,72.67
2016-11-30T09:04:40.627Z,72.48
2016-11-30T09:05:40.634Z,72.67
2016-11-30T09:06:40.592Z,72.57
2016-11-30T09:07:40.653Z,72.1
2016-11-30T09:08:40.803Z,72.29
2016-11-30T09:09:40.660Z,72.38
2016-11-30T09:10:40.669Z,72.19
2016-11-30T09:11:40.738Z,72.48
2016-11-30T09:12:40.754Z,72.1
2016-11-30T09:13:40.862Z,72.1
2016-11-30T09:14:40.754Z,72.1
2016-11-30T09:15:40.764Z,72.29
2016-11-30T09:16:40.772Z,72.1
2016-11-30T09:17:40.790Z,72.29
2016-11-30T09:18:40.904Z,72.38
2016-11-30T09:19:40.787Z,72.38
2016-11-30T09:20:40.795Z,72
2016-11-30T09:21:40.806Z,71.72
2016-11-30T09:22:40.840Z,71.81
2016-11-30T09:23:40.939Z,71.91
2016-11-30T09:24:40.860Z,72.19
2016-11-30T09:25:40.828Z,71.91
2016-11-30T09:26:40.877Z,71.44
2016-11-30T09:27:40.886Z,72.19
2016-11-30T09:28:40.956Z,71.44
2016-11-30T09:29:41.151Z,71.25
2016-11-30T09:30:40.902Z,70.49
2016-11-30T09:31:40.912Z,70.78
2016-11-30T09:32:40.923Z,70.87
2016-11-30T09:33:40.968Z,71.25
2016-11-30T09:34:40.928Z,71.15
2016-11-30T09:35:40.937Z,71.06
2016-11-30T09:36:40.910Z,71.25
2016-11-30T09:37:40.907Z,71.34
2016-11-30T09:38:40.927Z,71.15
2016-11-30T09:39:40.943Z,71.34
2016-11-30T09:40:40.941Z,70.97
2016-11-30T09:41:40.954Z,70.87
2016-11-30T09:42:40.966Z,70.87
2016-11-30T09:43:40.972Z,70.58
2016-11-30T09:44:40.984Z,70.78
2016-11-30T09:45:40.994Z,71.06
2016-11-30T09:46:41.011Z,70.87
2016-11-30T09:47:41.013Z,70.49
2016-11-30T09:48:41.029Z,70.68
2016-11-30T09:49:41.039Z,70.87
2016-11-30T09:50:41.051Z,70.78
2016-11-30T09:51:41.060Z,70.87
2016-11-30T09:52:41.074Z,70.97
2016-11-30T09:53:41.079Z,70.49
2016-11-30T09:54:41.093Z,70.58
2016-11-30T09:55:41.424Z,70.58
2016-11-30T09:56:41.109Z,70.49
2016-11-30T09:57:41.119Z,71.15
2016-11-30T09:58:41.131Z,71.44
2016-11-30T09:59:41.140Z,71.34
2016-11-30T10:00:41.159Z,70.87
2016-11-30T10:01:41.166Z,70.97
2016-11-30T10:02:41.176Z,70.49
2016-11-30T10:03:41.189Z,70.58
2016-11-30T10:04:41.196Z,70.78
2016-11-30T10:05:41.201Z,70.49
2016-11-30T10:06:41.214Z,70.68
2016-11-30T10:07:41.375Z,70.49
2016-11-30T10:08:41.237Z,70.68
2016-11-30T10:09:41.247Z,70.68
2016-11-30T10:10:41.257Z,70.58
2016-11-30T10:11:41.276Z,71.38
2016-11-30T10:12:41.279Z,70.81
2016-11-30T10:13:41.292Z,70.72
2016-11-30T10:14:41.302Z,70.81
2016-11-30T10:15:41.318Z,70.97
2016-11-30T10:16:41.321Z,70.9
2016-11-30T10:17:41.343Z,71
2016-11-30T10:18:41.341Z,70.9
2016-11-30T10:19:41.356Z,70.53
2016-11-30T10:20:41.367Z,70.53
2016-11-30T10:21:41.381Z,70.53
2016-11-30T10:22:41.393Z,70.15
2016-11-30T10:23:41.395Z,70.43
2016-11-30T10:24:41.433Z,69.96
2016-11-30T10:25:41.418Z,69.96
2016-11-30T10:26:41.429Z,70.15
2016-11-30T10:27:41.439Z,70.24
2016-11-30T10:28:41.451Z,69.77
2016-11-30T10:29:41.464Z,69.86
2016-11-30T10:30:41.480Z,70.05
2016-11-30T10:31:41.486Z,69.86
2016-11-30T10:32:41.492Z,69.86
2016-11-30T10:33:41.504Z,70.05
2016-11-30T10:34:41.515Z,70.24
2016-11-30T10:35:41.527Z,70.24
2016-11-30T10:36:41.538Z,70.15
2016-11-30T10:37:41.548Z,70.43
2016-11-30T10:38:41.556Z,70.43
2016-11-30T10:39:41.570Z,70.15
2016-11-30T10:40:41.580Z,70.05
2016-11-30T10:41:41.591Z,69.96
2016-11-30T10:42:41.599Z,70.15
2016-11-30T10:43:41.611Z,70.43
2016-11-30T10:44:41.640Z,70.05
2016-11-30T10:45:41.631Z,70.15
2016-11-30T10:46:41.643Z,70.24
2016-11-30T10:47:41.659Z,70.24
2016-11-30T10:48:41.668Z,70.43
2016-11-30T10:49:41.675Z,70.43
2016-11-30T10:50:41.685Z,70.43
2016-11-30T10:51:41.698Z,70.43
2016-11-30T10:52:41.714Z,70.24
2016-11-30T10:53:41.755Z,69.96
2016-11-30T10:54:41.729Z,70.05
2016-11-30T10:55:41.742Z,69.96
2016-11-30T10:56:41.753Z,69.96
2016-11-30T10:57:41.761Z,69.96
2016-11-30T10:58:41.772Z,69.67
2016-11-30T10:59:41.784Z,69.48
2016-11-30T11:00:41.795Z,69.2
2016-11-30T11:01:41.834Z,69.01
2016-11-30T11:02:41.818Z,69.2
2016-11-30T11:03:41.829Z,69.29
2016-11-30T11:04:41.838Z,69.1
2016-11-30T11:05:41.854Z,69.96
2016-11-30T11:06:41.861Z,69.86
2016-11-30T11:07:41.872Z,69.86
2016-11-30T11:08:41.884Z,69.57
2016-11-30T11:09:41.895Z,69.96
2016-11-30T11:10:41.907Z,69.57
2016-11-30T11:11:42.028Z,69.67
2016-11-30T11:12:41.928Z,69.86
2016-11-30T11:13:41.936Z,69.77
2016-11-30T11:14:42.059Z,69.67
2016-11-30T11:15:41.958Z,69.96
2016-11-30T11:16:41.969Z,70.05
2016-11-30T11:17:41.982Z,70.24
2016-11-30T11:18:41.991Z,70.05
2016-11-30T11:19:42.004Z,70.24
2016-11-30T11:20:42.014Z,69.77
2016-11-30T11:21:42.023Z,69.86
2016-11-30T11:22:42.126Z,69.67
2016-11-30T11:23:42.047Z,69.96
2016-11-30T11:24:42.058Z,69.77
2016-11-30T11:25:42.067Z,70.15
2016-11-30T11:26:42.076Z,70.53
2016-11-30T11:27:42.092Z,70.15
2016-11-30T11:28:42.101Z,69.96
2016-11-30T11:29:42.121Z,69.96
2016-11-30T11:30:42.433Z,69.86
2016-11-30T11:31:42.317Z,70.24
2016-11-30T11:32:42.149Z,70.15
2016-11-30T11:33:42.155Z,70.05
2016-11-30T11:34:42.166Z,70.15
2016-11-30T11:35:42.176Z,70.34
2016-11-30T11:36:42.188Z,70.24
2016-11-30T11:37:42.199Z,69.96
2016-11-30T11:38:42.208Z,70.43
2016-11-30T11:39:42.222Z,70.24
2016-11-30T11:40:42.229Z,69.86
2016-11-30T11:41:42.243Z,69.86
2016-11-30T11:42:42.253Z,69.96
2016-11-30T11:43:42.268Z,70.05
2016-11-30T11:44:42.274Z,69.67
2016-11-30T11:45:42.403Z,69.29
2016-11-30T11:46:42.401Z,69.01
2016-11-30T11:47:42.411Z,69.2
2016-11-30T11:48:42.419Z,68.82
2016-11-30T11:49:42.427Z,68.82
2016-11-30T11:50:42.436Z,69.2
2016-11-30T11:51:42.445Z,69.38
2016-11-30T11:52:42.367Z,69.2
2016-11-30T11:53:42.377Z,69.01
2016-11-30T11:54:42.385Z,69.1
2016-11-30T11:55:42.401Z,69.01
2016-11-30T11:56:42.528Z,69.2
2016-11-30T11:57:42.537Z,69.29
2016-11-30T11:58:42.549Z,69.2
2016-11-30T11:59:42.555Z,69.29
2016-11-30T12:00:42.563Z,69.2
2016-11-30T12:01:42.463Z,69.29
2016-11-30T12:02:42.473Z,69.2
2016-11-30T12:03:42.484Z,69.29
2016-11-30T12:04:42.496Z,69.2
2016-11-30T12:05:42.507Z,69.29
2016-11-30T12:06:42.522Z,69.2
2016-11-30T12:07:42.527Z,69.1
2016-11-30T12:08:42.541Z,68.82
2016-11-30T12:09:42.550Z,68.82
2016-11-30T12:10:42.561Z,69.01
2016-11-30T12:11:42.574Z,69.1
2016-11-30T12:12:42.583Z,68.91
2016-11-30T12:13:44.567Z,68.44
2016-11-30T12:14:42.609Z,68.25
2016-11-30T12:15:42.617Z,68.06
2016-11-30T12:16:42.630Z,68.91
2016-11-30T12:17:42.643Z,68.54
2016-11-30T12:18:42.653Z,68.54
2016-11-30T12:19:42.660Z,68.76
2016-11-30T12:20:42.672Z,68.95
2016-11-30T12:21:42.684Z,68.19
2016-11-30T12:22:42.698Z,68.29
2016-11-30T12:23:42.707Z,68.29
2016-11-30T12:24:42.721Z,68
2016-11-30T12:25:42.726Z,67.87
2016-11-30T12:26:42.742Z,67.58
2016-11-30T12:27:42.750Z,67.77
2016-11-30T12:28:42.763Z,67.81
2016-11-30T12:29:42.776Z,67.71
2016-11-30T12:30:43.005Z,67.77
2016-11-30T12:31:42.906Z,67.9
2016-11-30T12:32:42.810Z,68.06
2016-11-30T12:33:43.138Z,67.81
2016-11-30T12:34:42.828Z,67.9
2016-11-30T12:35:42.840Z,67.24
2016-11-30T12:36:42.853Z,67.24
2016-11-30T12:37:42.894Z,67.14
2016-11-30T12:38:42.873Z,67.24
2016-11-30T12:39:42.886Z,67.24
2016-11-30T12:40:42.894Z,67.52
2016-11-30T12:41:43.023Z,67.43
2016-11-30T12:42:42.925Z,67.24
2016-11-30T12:43:43.244Z,67.81
2016-11-30T12:44:42.993Z,67.33
2016-11-30T12:45:42.954Z,66.96
2016-11-30T12:46:42.989Z,67.05
2016-11-30T12:47:42.975Z,67.14
2016-11-30T12:48:42.984Z,66.48
2016-11-30T12:49:43.047Z,66.29
2016-11-30T12:50:43.010Z,66.86
2016-11-30T12:51:43.019Z,66.77
2016-11-30T12:52:43.146Z,66.48
2016-11-30T12:53:43.038Z,66.2
2016-11-30T12:54:43.157Z,66.39